createdAt,value
2022-11-24T00:01:19.905Z,21.32
2022-11-24T00:03:53.396Z,21.32
2022-11-24T00:06:20.478Z,21.35
2022-11-24T00:08:47.941Z,21.36
2022-11-24T00:11:20.280Z,21.33
2022-11-24T00:13:47.778Z,21.30
2022-11-24T00:16:20.334Z,21.31
2022-11-24T00:18:49.274Z,21.28
2022-11-24T00:21:17.952Z,21.25
2022-11-24T00:23:45.547Z,21.22
2022-11-24T00:26:15.288Z,21.21
2022-11-24T00:28:43.643Z,21.24
2022-11-24T00:31:20.102Z,21.25
2022-11-24T00:33:49.984Z,21.24
2022-11-24T00:36:18.429Z,21.30
2022-11-24T00:38:46.401Z,21.30
2022-11-24T00:41:14.221Z,21.29
2022-11-24T00:43:41.350Z,21.29
2022-11-24T00:46:08.693Z,21.34
2022-11-24T00:48:36.047Z,21.40
2022-11-24T00:51:09.080Z,21.48
2022-11-24T00:53:36.423Z,21.52
2022-11-24T00:56:04.316Z,21.52
2022-11-24T00:58:32.348Z,21.51
2022-11-24T01:01:12.934Z,21.50
2022-11-24T01:03:40.212Z,21.48
2022-11-24T01:06:15.892Z,21.50
2022-11-24T01:08:43.671Z,21.52
2022-11-24T01:11:19.543Z,21.49
2022-11-24T01:13:48.619Z,21.47
2022-11-24T01:16:30.372Z,21.44
2022-11-24T01:18:58.037Z,21.42
2022-11-24T01:21:25.389Z,21.36
2022-11-24T01:23:52.485Z,21.34
2022-11-24T01:26:21.679Z,21.30
2022-11-24T01:28:56.424Z,21.31
2022-11-24T01:31:24.304Z,21.33
2022-11-24T01:33:51.773Z,21.35
2022-11-24T01:36:19.310Z,21.31
2022-11-24T01:38:46.433Z,21.28
2022-11-24T01:41:22.084Z,21.25
2022-11-24T01:43:49.983Z,21.28
2022-11-24T01:46:58.438Z,21.32
2022-11-24T01:49:33.140Z,21.30
2022-11-24T01:52:08.940Z,21.26
2022-11-24T01:54:44.317Z,21.23
2022-11-24T01:57:20.551Z,21.19
2022-11-24T01:59:51.679Z,21.16
2022-11-24T02:02:19.947Z,21.17
2022-11-24T02:04:48.432Z,21.20
2022-11-24T02:07:16.092Z,21.21
2022-11-24T02:09:50.954Z,21.22
2022-11-24T02:12:18.063Z,21.21
2022-11-24T02:14:46.436Z,21.23
2022-11-24T02:17:13.699Z,21.24
2022-11-24T02:19:40.668Z,21.24
2022-11-24T02:22:25.324Z,21.27
2022-11-24T02:25:24.304Z,21.32
2022-11-24T02:27:54.258Z,21.35
2022-11-24T02:30:21.854Z,21.34
2022-11-24T02:32:48.984Z,21.37
2022-11-24T02:35:16.136Z,21.38
2022-11-24T02:37:43.150Z,21.36
2022-11-24T02:40:10.796Z,21.36
2022-11-24T02:42:43.362Z,21.35
2022-11-24T02:45:12.211Z,21.38
2022-11-24T02:47:39.225Z,21.45
2022-11-24T02:50:06.835Z,21.48
2022-11-24T02:52:33.899Z,21.52
2022-11-24T02:55:00.937Z,21.54
2022-11-24T02:57:28.069Z,21.55
2022-11-24T02:59:55.071Z,21.57
2022-11-24T03:02:22.345Z,21.57
2022-11-24T03:04:49.596Z,21.59
2022-11-24T03:07:16.670Z,21.59
2022-11-24T03:09:43.849Z,21.58
2022-11-24T03:12:10.950Z,21.56
2022-11-24T03:14:38.079Z,21.58
2022-11-24T03:17:05.202Z,21.58
2022-11-24T03:19:32.292Z,21.55
2022-11-24T03:22:00.078Z,21.54
2022-11-24T03:24:27.137Z,21.52
2022-11-24T03:26:54.247Z,21.50
2022-11-24T03:29:21.617Z,21.43
2022-11-24T03:31:48.764Z,21.38
2022-11-24T03:34:15.796Z,21.32
2022-11-24T03:36:42.778Z,21.24
2022-11-24T03:39:10.103Z,21.22
2022-11-24T03:41:37.162Z,21.18
2022-11-24T03:44:04.398Z,21.14
2022-11-24T03:46:31.535Z,21.10
2022-11-24T03:48:58.614Z,21.09
2022-11-24T03:51:25.706Z,21.08
2022-11-24T03:53:52.805Z,21.08
2022-11-24T03:56:21.379Z,21.09
2022-11-24T03:58:48.443Z,21.07
2022-11-24T04:01:15.622Z,21.08
2022-11-24T04:03:42.651Z,21.09
2022-11-24T04:06:09.780Z,21.09
2022-11-24T04:08:36.829Z,21.06
2022-11-24T04:11:03.957Z,21.05
2022-11-24T04:13:30.979Z,21.03
2022-11-24T04:15:58.131Z,21.01
2022-11-24T04:18:25.345Z,20.99
2022-11-24T04:20:52.767Z,20.97
2022-11-24T04:23:20.305Z,20.98
2022-11-24T04:25:47.352Z,21.00
2022-11-24T04:28:14.732Z,21.01
2022-11-24T04:30:45.249Z,21.01
2022-11-24T04:33:13.022Z,21.04
2022-11-24T04:35:40.178Z,21.05
2022-11-24T04:38:07.197Z,21.03
2022-11-24T04:40:34.202Z,21.04
2022-11-24T04:43:01.267Z,21.03
2022-11-24T04:45:28.293Z,21.01
2022-11-24T04:47:55.342Z,21.00
2022-11-24T04:50:22.735Z,20.99
2022-11-24T04:52:49.875Z,20.97
2022-11-24T04:55:16.928Z,20.97
2022-11-24T04:57:44.422Z,20.96
2022-11-24T05:00:12.212Z,20.95
2022-11-24T05:02:39.285Z,20.93
2022-11-24T05:05:07.629Z,20.93
2022-11-24T05:07:35.232Z,20.90
2022-11-24T05:10:21.302Z,20.91
2022-11-24T05:12:56.856Z,20.96
2022-11-24T05:15:23.911Z,20.98
2022-11-24T05:17:50.919Z,20.99
2022-11-24T05:20:18.543Z,20.98
2022-11-24T05:22:45.873Z,20.97
2022-11-24T05:25:13.299Z,20.98
2022-11-24T05:27:41.097Z,20.97
2022-11-24T05:30:08.643Z,20.92
2022-11-24T05:32:35.620Z,20.92
2022-11-24T05:35:04.800Z,20.97
2022-11-24T05:37:31.809Z,21.03
2022-11-24T05:39:58.872Z,21.09
2022-11-24T05:42:46.181Z,21.14
2022-11-24T05:45:20.907Z,21.19
2022-11-24T05:47:49.156Z,21.20
2022-11-24T05:50:17.927Z,21.20
2022-11-24T05:52:45.299Z,21.22
2022-11-24T05:55:14.944Z,21.21
2022-11-24T05:57:42.282Z,21.17
2022-11-24T06:00:10.600Z,21.12
2022-11-24T06:02:38.106Z,21.07
2022-11-24T06:05:05.563Z,21.01
2022-11-24T06:07:32.629Z,20.97
2022-11-24T06:09:59.773Z,20.94
2022-11-24T06:12:26.781Z,20.95
2022-11-24T06:14:53.877Z,20.93
2022-11-24T06:17:20.924Z,20.93
2022-11-24T06:19:50.367Z,20.94
2022-11-24T06:22:19.182Z,20.97
2022-11-24T06:24:47.033Z,21.02
2022-11-24T06:27:14.649Z,21.07
2022-11-24T06:29:41.732Z,21.09
2022-11-24T06:32:09.311Z,21.12
2022-11-24T06:34:36.727Z,21.18
2022-11-24T06:37:04.059Z,21.24
2022-11-24T06:39:31.122Z,21.27
2022-11-24T06:41:59.016Z,21.28
2022-11-24T06:44:26.290Z,21.27
2022-11-24T06:46:53.335Z,21.28
2022-11-24T06:49:20.343Z,21.31
2022-11-24T06:51:47.416Z,21.34
2022-11-24T06:54:18.039Z,21.37
2022-11-24T06:56:45.089Z,21.41
2022-11-24T06:59:18.841Z,21.38
2022-11-24T07:01:46.070Z,21.35
2022-11-24T07:04:13.297Z,21.30
2022-11-24T07:06:43.029Z,21.28
2022-11-24T07:09:11.332Z,21.26
2022-11-24T07:11:39.083Z,21.25
2022-11-24T07:14:06.645Z,21.26
2022-11-24T07:16:34.242Z,21.22
2022-11-24T07:19:01.334Z,21.14
2022-11-24T07:21:30.889Z,21.12
2022-11-24T07:23:58.667Z,21.12
2022-11-24T07:26:25.754Z,21.13
2022-11-24T07:28:52.862Z,21.14
2022-11-24T07:31:22.259Z,21.09
2022-11-24T07:33:50.405Z,21.04
2022-11-24T07:36:17.769Z,20.96
2022-11-24T07:38:46.049Z,20.88
2022-11-24T07:41:15.096Z,20.92
2022-11-24T07:43:42.507Z,20.98
2022-11-24T07:46:12.557Z,21.04
2022-11-24T07:48:40.021Z,21.11
2022-11-24T07:51:08.441Z,21.16
2022-11-24T07:53:36.153Z,21.23
2022-11-24T07:56:05.197Z,21.29
2022-11-24T07:58:34.713Z,21.33
2022-11-24T08:01:13.816Z,21.32
2022-11-24T08:03:41.489Z,21.29
2022-11-24T08:06:26.517Z,21.31
2022-11-24T08:08:55.784Z,21.35
2022-11-24T08:11:23.047Z,21.37
2022-11-24T08:13:50.181Z,21.35
2022-11-24T08:16:19.684Z,21.37
2022-11-24T08:18:51.736Z,21.41
2022-11-24T08:21:19.227Z,21.44
2022-11-24T08:23:46.626Z,21.50
2022-11-24T08:26:17.820Z,21.50
2022-11-24T08:28:46.472Z,21.54
2022-11-24T08:31:15.969Z,21.56
2022-11-24T08:33:43.442Z,21.56
2022-11-24T08:36:15.626Z,21.56
2022-11-24T08:38:43.462Z,21.55
2022-11-24T08:41:16.218Z,21.54
2022-11-24T08:43:43.738Z,21.60
2022-11-24T08:46:13.432Z,21.62
2022-11-24T08:48:40.933Z,21.66
2022-11-24T08:51:15.798Z,21.69
2022-11-24T08:53:43.095Z,21.73
2022-11-24T08:56:11.104Z,21.77
2022-11-24T08:58:39.026Z,21.83
2022-11-24T09:01:11.952Z,21.91
2022-11-24T09:03:42.350Z,21.92
2022-11-24T09:06:13.708Z,21.94
2022-11-24T09:08:41.081Z,21.94
2022-11-24T09:11:11.427Z,21.99
2022-11-24T09:13:39.588Z,22.00
2022-11-24T09:16:11.764Z,22.02
2022-11-24T09:18:38.913Z,22.05
2022-11-24T09:21:08.254Z,22.05
2022-11-24T09:23:36.162Z,22.06
2022-11-24T09:26:12.749Z,22.09
2022-11-24T09:28:40.058Z,22.12
2022-11-24T09:31:09.163Z,22.15
2022-11-24T09:33:37.016Z,22.18
2022-11-24T09:36:05.150Z,22.22
2022-11-24T09:38:32.552Z,22.25
2022-11-24T09:41:48.903Z,22.25
2022-11-24T09:44:46.742Z,22.19
2022-11-24T09:47:36.448Z,22.04
2022-11-24T09:50:10.620Z,22.08
2022-11-24T09:52:40.540Z,22.05
2022-11-24T09:55:25.828Z,22.04
2022-11-24T09:58:03.489Z,21.99
2022-11-24T10:00:31.331Z,22.01
2022-11-24T10:02:58.467Z,22.07
2022-11-24T10:05:29.738Z,22.12
2022-11-24T10:08:41.030Z,22.17
2022-11-24T10:11:15.142Z,22.20
2022-11-24T10:14:06.375Z,22.23
2022-11-24T10:16:43.716Z,22.29
2022-11-24T10:19:41.193Z,22.35
2022-11-24T10:22:26.514Z,22.38
2022-11-24T10:25:07.944Z,22.43
2022-11-24T10:27:40.542Z,22.47
2022-11-24T10:30:33.951Z,22.50
2022-11-24T10:33:08.586Z,22.54
2022-11-24T10:35:46.151Z,22.52
2022-11-24T10:38:33.135Z,22.48
2022-11-24T10:41:06.032Z,22.35
2022-11-24T10:43:33.148Z,22.29
2022-11-24T10:46:11.038Z,22.38
2022-11-24T10:48:44.387Z,22.40
2022-11-24T10:52:01.593Z,22.48
2022-11-24T10:54:28.734Z,22.57
2022-11-24T10:56:55.997Z,22.61
2022-11-24T10:59:30.191Z,22.61
2022-11-24T11:01:57.490Z,22.62
2022-11-24T11:04:35.888Z,22.71
2022-11-24T11:07:09.908Z,22.64
2022-11-24T11:09:37.224Z,22.65
2022-11-24T11:12:51.727Z,22.72
2022-11-24T11:15:29.086Z,22.73
2022-11-24T11:18:01.378Z,22.78
2022-11-24T11:20:34.505Z,22.86
2022-11-24T11:23:14.592Z,22.83
2022-11-24T11:25:41.645Z,22.87
2022-11-24T11:28:31.950Z,22.96
2022-11-24T11:31:21.712Z,22.94
2022-11-24T11:34:10.648Z,22.94
2022-11-24T11:36:51.109Z,22.91
2022-11-24T11:39:18.133Z,22.84
2022-11-24T11:41:48.506Z,22.90
2022-11-24T11:44:42.424Z,22.97
2022-11-24T11:47:22.136Z,23.01
2022-11-24T11:49:50.081Z,22.98
2022-11-24T11:52:32.634Z,22.99
2022-11-24T11:55:28.885Z,23.00
2022-11-24T11:58:01.687Z,22.89
2022-11-24T12:00:32.040Z,22.90
2022-11-24T12:03:43.169Z,22.94
2022-11-24T12:06:28.335Z,23.00
2022-11-24T12:09:30.699Z,22.94
2022-11-24T12:12:00.538Z,22.90
2022-11-24T12:14:53.505Z,22.92
2022-11-24T12:17:43.150Z,22.94
2022-11-24T12:20:42.916Z,22.95
2022-11-24T12:23:40.728Z,23.05
2022-11-24T12:26:25.082Z,23.09
2022-11-24T12:29:15.998Z,23.08
2022-11-24T12:32:11.035Z,23.08
2022-11-24T12:35:02.363Z,23.08
2022-11-24T12:37:41.581Z,23.03
2022-11-24T12:40:15.999Z,22.94
2022-11-24T12:42:55.141Z,22.89
2022-11-24T12:45:51.076Z,22.81
2022-11-24T12:48:30.293Z,22.76
2022-11-24T12:51:00.016Z,22.71
2022-11-24T12:53:33.236Z,22.63
2022-11-24T12:56:07.873Z,22.63
2022-11-24T12:58:52.940Z,22.67
2022-11-24T13:01:40.126Z,22.71
2022-11-24T13:04:29.215Z,22.76
2022-11-24T13:07:05.407Z,22.80
2022-11-24T13:09:32.550Z,22.87
2022-11-24T13:12:14.089Z,22.95
2022-11-24T13:14:46.407Z,23.08
2022-11-24T13:20:33.774Z,23.43
2022-11-24T13:23:03.778Z,23.54
2022-11-24T13:25:35.565Z,23.58
2022-11-24T13:28:06.901Z,23.55
2022-11-24T13:30:33.899Z,23.55
2022-11-24T13:33:16.563Z,23.52
2022-11-24T13:36:02.507Z,23.56
2022-11-24T13:38:52.991Z,23.63
2022-11-24T13:41:32.060Z,23.73
2022-11-24T13:44:18.388Z,23.74
2022-11-24T13:47:06.773Z,23.76
2022-11-24T13:49:38.900Z,23.73
2022-11-24T13:52:36.790Z,23.69
2022-11-24T13:55:20.023Z,23.63
2022-11-24T13:58:25.296Z,23.74
2022-11-24T14:01:12.559Z,23.65
2022-11-24T14:04:21.673Z,23.59
2022-11-24T14:06:46.583Z,23.56
2022-11-24T14:09:21.871Z,23.67
2022-11-24T14:12:20.506Z,23.58
2022-11-24T14:14:49.686Z,23.60
2022-11-24T14:17:28.893Z,23.52
2022-11-24T14:19:57.727Z,23.58
2022-11-24T14:22:34.957Z,23.56
2022-11-24T14:25:03.042Z,23.55
2022-11-24T14:27:36.406Z,23.61
2022-11-24T14:30:15.768Z,23.74
2022-11-24T14:32:57.299Z,23.86
2022-11-24T14:35:32.276Z,23.85
2022-11-24T14:38:03.568Z,23.77
2022-11-24T14:40:43.663Z,23.86
2022-11-24T14:43:32.142Z,23.93
2022-11-24T14:46:07.835Z,23.97
2022-11-24T14:48:40.126Z,24.04
2022-11-24T14:51:22.485Z,24.07
2022-11-24T14:53:52.755Z,23.95
2022-11-24T14:56:24.189Z,23.91
2022-11-24T14:58:51.470Z,23.91
2022-11-24T15:01:32.986Z,23.97
2022-11-24T15:04:26.630Z,24.09
2022-11-24T15:07:17.263Z,24.17
2022-11-24T15:09:59.770Z,24.01
2022-11-24T15:12:48.607Z,23.89
2022-11-24T15:15:15.719Z,23.80
2022-11-24T15:17:55.533Z,23.76
2022-11-24T15:20:45.822Z,23.67
2022-11-24T15:23:30.239Z,23.63
2022-11-24T15:26:03.140Z,23.65
2022-11-24T15:28:31.414Z,23.72
2022-11-24T15:31:07.043Z,23.75
2022-11-24T15:33:34.045Z,23.73
2022-11-24T15:36:01.294Z,23.71
2022-11-24T15:38:28.856Z,23.69
2022-11-24T15:40:58.572Z,23.69
2022-11-24T15:43:37.331Z,23.69
2022-11-24T15:46:04.889Z,23.68
2022-11-24T15:48:32.326Z,23.67
2022-11-24T15:51:02.692Z,23.65
2022-11-24T15:53:44.773Z,23.62
2022-11-24T15:56:22.637Z,23.58
2022-11-24T15:58:49.671Z,23.65
2022-11-24T16:01:16.935Z,23.63
2022-11-24T16:03:47.420Z,23.59
2022-11-24T16:06:24.732Z,23.58
2022-11-24T16:08:54.232Z,23.58
2022-11-24T16:11:22.096Z,23.60
2022-11-24T16:13:52.880Z,23.60
2022-11-24T16:16:22.908Z,23.55
2022-11-24T16:18:50.041Z,23.52
2022-11-24T16:21:17.130Z,23.54
2022-11-24T16:23:44.362Z,23.56
2022-11-24T16:26:11.400Z,23.54
2022-11-24T16:28:38.405Z,23.47
2022-11-24T16:31:05.576Z,23.39
2022-11-24T16:33:32.678Z,23.31
2022-11-24T16:35:59.649Z,23.27
2022-11-24T16:38:26.668Z,23.25
2022-11-24T16:40:57.336Z,23.24
2022-11-24T16:43:27.465Z,23.23
2022-11-24T16:46:07.307Z,23.26
2022-11-24T16:48:37.443Z,23.33
2022-11-24T16:51:10.341Z,23.33
2022-11-24T16:53:38.235Z,23.30
2022-11-24T16:56:05.558Z,23.29
2022-11-24T16:58:32.922Z,23.25
2022-11-24T17:01:13.807Z,23.20
2022-11-24T17:03:41.478Z,23.18
2022-11-24T17:06:13.533Z,23.21
2022-11-24T17:08:41.617Z,23.17
2022-11-24T17:11:16.861Z,23.17
2022-11-24T17:13:45.889Z,23.18
2022-11-24T17:16:18.729Z,23.18
2022-11-24T17:18:46.098Z,23.12
2022-11-24T17:21:18.999Z,23.06
2022-11-24T17:23:46.674Z,23.02
2022-11-24T17:26:17.898Z,23.02
2022-11-24T17:28:45.401Z,22.94
2022-11-24T17:31:24.345Z,22.89
2022-11-24T17:33:55.342Z,22.77
2022-11-24T17:36:23.252Z,22.73
2022-11-24T17:38:51.010Z,22.75
2022-11-24T17:41:19.281Z,22.75
2022-11-24T17:43:51.914Z,22.73
2022-11-24T17:46:19.982Z,22.67
2022-11-24T17:48:47.398Z,22.61
2022-11-24T17:51:17.613Z,22.55
2022-11-24T17:53:47.373Z,22.50
2022-11-24T17:56:17.217Z,22.48
2022-11-24T17:58:45.281Z,22.45
2022-11-24T18:01:14.003Z,22.40
2022-11-24T18:03:41.921Z,22.38
2022-11-24T18:06:13.813Z,22.37
2022-11-24T18:08:43.364Z,22.33
2022-11-24T18:11:27.295Z,22.36
2022-11-24T18:14:00.933Z,22.40
2022-11-24T18:16:30.695Z,22.34
2022-11-24T18:19:10.771Z,22.30
2022-11-24T18:21:46.848Z,22.28
2022-11-24T18:24:14.746Z,22.26
2022-11-24T18:26:43.939Z,22.25
2022-11-24T18:29:11.778Z,22.28
2022-11-24T18:31:39.235Z,22.30
2022-11-24T18:34:06.728Z,22.37
2022-11-24T18:36:34.882Z,22.41
2022-11-24T18:39:07.480Z,22.45
2022-11-24T18:41:34.761Z,22.48
2022-11-24T18:44:08.338Z,22.50
2022-11-24T18:46:35.397Z,22.48
2022-11-24T18:49:02.488Z,22.45
2022-11-24T18:51:30.332Z,22.41
2022-11-24T18:53:58.405Z,22.37
2022-11-24T18:56:26.498Z,22.37
2022-11-24T18:58:55.053Z,22.34
2022-11-24T19:01:25.416Z,22.31
2022-11-24T19:03:55.698Z,22.29
2022-11-24T19:06:24.283Z,22.29
2022-11-24T19:08:54.019Z,22.29
2022-11-24T19:11:35.838Z,22.31
2022-11-24T19:14:05.244Z,22.30
2022-11-24T19:16:33.212Z,22.30
2022-11-24T19:19:01.937Z,22.29
2022-11-24T19:21:34.530Z,22.32
2022-11-24T19:24:05.479Z,22.36
2022-11-24T19:26:35.385Z,22.37
2022-11-24T19:29:03.340Z,22.40
2022-11-24T19:31:31.100Z,22.42
2022-11-24T19:34:00.309Z,22.45
2022-11-24T19:36:28.008Z,22.50
2022-11-24T19:38:57.492Z,22.50
2022-11-24T19:41:30.805Z,22.54
2022-11-24T19:43:59.066Z,22.56
2022-11-24T19:46:29.863Z,22.52
2022-11-24T19:49:00.187Z,22.52
2022-11-24T19:51:33.438Z,22.50
2022-11-24T19:54:01.150Z,22.48
2022-11-24T19:56:31.389Z,22.48
2022-11-24T19:58:58.562Z,22.39
2022-11-24T20:01:33.945Z,22.38
2022-11-24T20:04:04.488Z,22.36
2022-11-24T20:06:35.193Z,22.37
2022-11-24T20:09:02.386Z,22.39
2022-11-24T20:11:30.363Z,22.40
2022-11-24T20:13:58.249Z,22.40
2022-11-24T20:16:30.256Z,22.41
2022-11-24T20:19:02.359Z,22.46
2022-11-24T20:21:32.958Z,22.47
2022-11-24T20:24:12.761Z,22.48
2022-11-24T20:26:43.234Z,22.46
2022-11-24T20:29:12.495Z,22.48
2022-11-24T20:31:43.882Z,22.48
2022-11-24T20:34:11.913Z,22.45
2022-11-24T20:36:42.085Z,22.48
2022-11-24T20:39:19.643Z,22.48
2022-11-24T20:41:47.790Z,22.48
2022-11-24T20:44:16.971Z,22.48
2022-11-24T20:46:46.021Z,22.50
2022-11-24T20:49:16.923Z,22.46
2022-11-24T20:51:47.322Z,22.44
2022-11-24T20:54:16.688Z,22.43
2022-11-24T20:56:44.840Z,22.42
2022-11-24T20:59:14.573Z,22.41
2022-11-24T21:01:45.648Z,22.41
2022-11-24T21:04:17.192Z,22.37
2022-11-24T21:06:44.380Z,22.36
2022-11-24T21:09:11.510Z,22.37
2022-11-24T21:11:39.424Z,22.36
2022-11-24T21:14:07.558Z,22.35
2022-11-24T21:16:36.926Z,22.38
2022-11-24T21:19:09.781Z,22.43
2022-11-24T21:21:38.148Z,22.43
2022-11-24T21:24:12.580Z,22.42
2022-11-24T21:26:41.187Z,22.42
2022-11-24T21:29:08.975Z,22.44
2022-11-24T21:31:37.401Z,22.43
2022-11-24T21:34:06.186Z,22.39
2022-11-24T21:36:35.197Z,22.37
2022-11-24T21:39:03.712Z,22.38
2022-11-24T21:41:33.560Z,22.40
2022-11-24T21:44:01.072Z,22.40
2022-11-24T21:46:32.785Z,22.40
2022-11-24T21:48:59.948Z,22.40
2022-11-24T21:51:27.110Z,22.36
2022-11-24T21:53:54.802Z,22.39
2022-11-24T21:56:23.603Z,22.41
2022-11-24T21:58:53.147Z,22.41
2022-11-24T22:01:22.302Z,22.39
2022-11-24T22:03:50.095Z,22.38
2022-11-24T22:06:19.488Z,22.38
2022-11-24T22:08:49.823Z,22.37
2022-11-24T22:11:20.243Z,22.29
2022-11-24T22:13:48.034Z,22.24
2022-11-24T22:16:17.983Z,22.17
2022-11-24T22:18:45.706Z,22.15
2022-11-24T22:21:24.468Z,22.13
2022-11-24T22:23:52.854Z,22.08
2022-11-24T22:26:22.286Z,22.02
2022-11-24T22:28:49.852Z,21.98
2022-11-24T22:31:19.731Z,21.93
2022-11-24T22:33:47.406Z,21.87
2022-11-24T22:36:16.274Z,21.84
2022-11-24T22:38:43.735Z,21.83
2022-11-24T22:41:19.636Z,21.79
2022-11-24T22:43:47.825Z,21.78
2022-11-24T22:46:17.346Z,21.80
2022-11-24T22:48:45.776Z,21.82
2022-11-24T22:51:15.312Z,21.86
2022-11-24T22:53:46.572Z,21.86
2022-11-24T22:56:13.585Z,21.86
2022-11-24T22:58:40.974Z,21.89
2022-11-24T23:01:19.409Z,21.85
2022-11-24T23:03:47.143Z,21.81
2022-11-24T23:06:20.681Z,21.80
2022-11-24T23:08:47.770Z,21.82
2022-11-24T23:11:18.016Z,21.85
2022-11-24T23:13:45.366Z,21.88
2022-11-24T23:16:17.094Z,21.82
2022-11-24T23:18:47.789Z,21.79
2022-11-24T23:21:27.423Z,21.75
2022-11-24T23:23:55.231Z,21.72
2022-11-24T23:26:24.743Z,21.68
2022-11-24T23:28:51.867Z,21.67
2022-11-24T23:31:22.221Z,21.63
2022-11-24T23:33:49.272Z,21.59
2022-11-24T23:36:18.270Z,21.56
2022-11-24T23:38:46.097Z,21.56
2022-11-24T23:41:18.314Z,21.59
2022-11-24T23:43:45.354Z,21.60
2022-11-24T23:46:17.671Z,21.57
2022-11-24T23:48:44.899Z,21.63
2022-11-24T23:51:18.492Z,21.69
2022-11-24T23:53:45.902Z,21.75
2022-11-24T23:56:17.905Z,21.82
2022-11-24T23:58:45.652Z,21.89
